sensor_id;sensor_type;location;lat;lon;timestamp;temperature;humidity
4306;DHT22;2166;49.926;8.608;2023-04-03T00:00:56;5.30;76.70
4306;DHT22;2166;49.926;8.608;2023-04-03T00:03:26;5.20;76.70
4306;DHT22;2166;49.926;8.608;2023-04-03T00:05:55;5.10;76.70
4306;DHT22;2166;49.926;8.608;2023-04-03T00:08:24;5.10;76.80
4306;DHT22;2166;49.926;8.608;2023-04-03T00:10:56;5.10;77.00
4306;DHT22;2166;49.926;8.608;2023-04-03T00:13:26;5.00;76.80
4306;DHT22;2166;49.926;8.608;2023-04-03T00:16:12;5.00;76.90
4306;DHT22;2166;49.926;8.608;2023-04-03T00:18:42;5.10;77.00
4306;DHT22;2166;49.926;8.608;2023-04-03T00:21:10;5.00;76.90
4306;DHT22;2166;49.926;8.608;2023-04-03T00:23:40;5.00;77.00
4306;DHT22;2166;49.926;8.608;2023-04-03T00:26:09;5.00;76.90
4306;DHT22;2166;49.926;8.608;2023-04-03T00:28:39;5.00;77.00
4306;DHT22;2166;49.926;8.608;2023-04-03T00:31:08;4.90;77.10
4306;DHT22;2166;49.926;8.608;2023-04-03T00:33:37;4.90;77.00
4306;DHT22;2166;49.926;8.608;2023-04-03T00:36:06;4.80;77.30
4306;DHT22;2166;49.926;8.608;2023-04-03T00:38:37;4.80;77.20
4306;DHT22;2166;49.926;8.608;2023-04-03T00:41:06;4.80;77.20
4306;DHT22;2166;49.926;8.608;2023-04-03T00:43:37;4.80;77.30
4306;DHT22;2166;49.926;8.608;2023-04-03T00:46:08;4.80;77.30
4306;DHT22;2166;49.926;8.608;2023-04-03T00:48:38;4.80;77.30
4306;DHT22;2166;49.926;8.608;2023-04-03T00:51:09;4.80;77.30
4306;DHT22;2166;49.926;8.608;2023-04-03T00:53:40;4.70;77.30
4306;DHT22;2166;49.926;8.608;2023-04-03T00:56:11;4.70;77.40
4306;DHT22;2166;49.926;8.608;2023-04-03T00:58:43;4.70;77.60
4306;DHT22;2166;49.926;8.608;2023-04-03T01:01:14;4.70;77.50
4306;DHT22;2166;49.926;8.608;2023-04-03T01:03:47;4.70;77.50
4306;DHT22;2166;49.926;8.608;2023-04-03T01:06:17;4.80;77.40
4306;DHT22;2166;49.926;8.608;2023-04-03T01:08:49;4.80;77.40
4306;DHT22;2166;49.926;8.608;2023-04-03T01:11:18;4.80;77.40
4306;DHT22;2166;49.926;8.608;2023-04-03T01:13:50;4.80;77.50
4306;DHT22;2166;49.926;8.608;2023-04-03T01:16:25;4.90;77.40
4306;DHT22;2166;49.926;8.608;2023-04-03T01:19:17;4.90;77.50
4306;DHT22;2166;49.926;8.608;2023-04-03T01:21:55;5.00;77.40
4306;DHT22;2166;49.926;8.608;2023-04-03T01:24:31;5.00;77.10
4306;DHT22;2166;49.926;8.608;2023-04-03T01:27:07;5.00;77.40
4306;DHT22;2166;49.926;8.608;2023-04-03T01:29:38;5.00;77.30
4306;DHT22;2166;49.926;8.608;2023-04-03T01:32:18;5.00;77.30
4306;DHT22;2166;49.926;8.608;2023-04-03T01:34:48;5.00;77.10
4306;DHT22;2166;49.926;8.608;2023-04-03T01:37:19;4.90;77.30
4306;DHT22;2166;49.926;8.608;2023-04-03T01:39:48;4.90;77.40
4306;DHT22;2166;49.926;8.608;2023-04-03T01:42:17;4.90;77.40
4306;DHT22;2166;49.926;8.608;2023-04-03T01:44:46;4.90;77.40
4306;DHT22;2166;49.926;8.608;2023-04-03T01:47:16;4.90;77.50
4306;DHT22;2166;49.926;8.608;2023-04-03T01:49:45;4.90;77.50
4306;DHT22;2166;49.926;8.608;2023-04-03T01:52:42;4.90;77.60
4306;DHT22;2166;49.926;8.608;2023-04-03T01:55:10;4.90;77.60
4306;DHT22;2166;49.926;8.608;2023-04-03T01:57:52;4.90;77.50
4306;DHT22;2166;49.926;8.608;2023-04-03T02:00:21;4.80;77.50
4306;DHT22;2166;49.926;8.608;2023-04-03T02:02:53;4.80;77.50
4306;DHT22;2166;49.926;8.608;2023-04-03T02:05:22;4.90;77.50
4306;DHT22;2166;49.926;8.608;2023-04-03T02:07:50;4.90;77.60
4306;DHT22;2166;49.926;8.608;2023-04-03T02:10:19;4.90;77.50
4306;DHT22;2166;49.926;8.608;2023-04-03T02:12:47;5.00;77.60
4306;DHT22;2166;49.926;8.608;2023-04-03T02:15:25;5.00;77.40
4306;DHT22;2166;49.926;8.608;2023-04-03T02:17:56;5.00;77.40
4306;DHT22;2166;49.926;8.608;2023-04-03T02:20:27;5.00;77.50
4306;DHT22;2166;49.926;8.608;2023-04-03T02:22:56;5.00;77.40
4306;DHT22;2166;49.926;8.608;2023-04-03T02:25:28;5.00;77.50
4306;DHT22;2166;49.926;8.608;2023-04-03T02:28:00;4.90;77.40
4306;DHT22;2166;49.926;8.608;2023-04-03T02:30:31;4.90;77.60
4306;DHT22;2166;49.926;8.608;2023-04-03T02:33:01;4.90;77.50
4306;DHT22;2166;49.926;8.608;2023-04-03T02:35:30;4.80;77.50
4306;DHT22;2166;49.926;8.608;2023-04-03T02:38:00;4.80;77.70
4306;DHT22;2166;49.926;8.608;2023-04-03T02:40:29;4.80;77.80
4306;DHT22;2166;49.926;8.608;2023-04-03T02:43:01;4.80;77.60
4306;DHT22;2166;49.926;8.608;2023-04-03T02:45:30;4.80;77.60
4306;DHT22;2166;49.926;8.608;2023-04-03T02:48:02;4.80;77.70
4306;DHT22;2166;49.926;8.608;2023-04-03T02:50:31;4.70;77.70
4306;DHT22;2166;49.926;8.608;2023-04-03T02:53:01;4.70;77.80
4306;DHT22;2166;49.926;8.608;2023-04-03T02:55:30;4.60;77.70
4306;DHT22;2166;49.926;8.608;2023-04-03T02:57:58;4.70;77.90
4306;DHT22;2166;49.926;8.608;2023-04-03T03:00:27;4.60;77.80
4306;DHT22;2166;49.926;8.608;2023-04-03T03:02:56;4.60;77.90
4306;DHT22;2166;49.926;8.608;2023-04-03T03:05:31;4.50;77.90
4306;DHT22;2166;49.926;8.608;2023-04-03T03:07:59;4.50;78.20
4306;DHT22;2166;49.926;8.608;2023-04-03T03:10:31;4.50;78.10
4306;DHT22;2166;49.926;8.608;2023-04-03T03:13:02;4.40;78.10
4306;DHT22;2166;49.926;8.608;2023-04-03T03:15:32;4.40;78.30
4306;DHT22;2166;49.926;8.608;2023-04-03T03:18:02;4.30;78.20
4306;DHT22;2166;49.926;8.608;2023-04-03T03:20:33;4.30;78.30
4306;DHT22;2166;49.926;8.608;2023-04-03T03:23:04;4.20;78.40
4306;DHT22;2166;49.926;8.608;2023-04-03T03:25:37;4.20;78.60
4306;DHT22;2166;49.926;8.608;2023-04-03T03:28:10;4.20;78.60
4306;DHT22;2166;49.926;8.608;2023-04-03T03:30:41;4.20;78.50
4306;DHT22;2166;49.926;8.608;2023-04-03T03:33:13;4.20;78.60
4306;DHT22;2166;49.926;8.608;2023-04-03T03:35:47;4.20;78.70
4306;DHT22;2166;49.926;8.608;2023-04-03T03:38:16;4.20;78.70
4306;DHT22;2166;49.926;8.608;2023-04-03T03:40:46;4.20;78.70
4306;DHT22;2166;49.926;8.608;2023-04-03T03:43:16;4.20;78.70
4306;DHT22;2166;49.926;8.608;2023-04-03T03:45:49;4.20;78.70
4306;DHT22;2166;49.926;8.608;2023-04-03T03:48:18;4.20;78.90
4306;DHT22;2166;49.926;8.608;2023-04-03T03:50:48;4.20;78.70
4306;DHT22;2166;49.926;8.608;2023-04-03T03:53:21;4.20;78.70
4306;DHT22;2166;49.926;8.608;2023-04-03T03:55:53;4.20;78.70
4306;DHT22;2166;49.926;8.608;2023-04-03T03:58:25;4.30;78.80
4306;DHT22;2166;49.926;8.608;2023-04-03T04:00:54;4.20;78.70
4306;DHT22;2166;49.926;8.608;2023-04-03T04:03:24;4.20;78.70
4306;DHT22;2166;49.926;8.608;2023-04-03T04:05:57;4.20;78.70
4306;DHT22;2166;49.926;8.608;2023-04-03T04:08:26;4.30;78.60
4306;DHT22;2166;49.926;8.608;2023-04-03T04:10:55;4.30;78.50
4306;DHT22;2166;49.926;8.608;2023-04-03T04:13:36;4.30;78.50
4306;DHT22;2166;49.926;8.608;2023-04-03T04:16:16;4.40;78.40
4306;DHT22;2166;49.926;8.608;2023-04-03T04:18:47;4.40;78.40
4306;DHT22;2166;49.926;8.608;2023-04-03T04:21:18;4.50;78.30
4306;DHT22;2166;49.926;8.608;2023-04-03T04:23:49;4.50;78.30
4306;DHT22;2166;49.926;8.608;2023-04-03T04:26:19;4.50;78.20
4306;DHT22;2166;49.926;8.608;2023-04-03T04:28:48;4.50;77.90
4306;DHT22;2166;49.926;8.608;2023-04-03T04:31:19;4.40;77.80
4306;DHT22;2166;49.926;8.608;2023-04-03T04:33:49;4.40;78.10
4306;DHT22;2166;49.926;8.608;2023-04-03T04:36:23;4.30;78.00
4306;DHT22;2166;49.926;8.608;2023-04-03T04:38:52;4.30;78.00
4306;DHT22;2166;49.926;8.608;2023-04-03T04:41:23;4.30;78.10
4306;DHT22;2166;49.926;8.608;2023-04-03T04:43:53;4.30;78.00
4306;DHT22;2166;49.926;8.608;2023-04-03T04:46:23;4.30;78.00
4306;DHT22;2166;49.926;8.608;2023-04-03T04:48:57;4.30;78.00
4306;DHT22;2166;49.926;8.608;2023-04-03T04:51:29;4.20;77.90
4306;DHT22;2166;49.926;8.608;2023-04-03T04:54:15;4.20;78.00
4306;DHT22;2166;49.926;8.608;2023-04-03T04:56:47;4.10;77.90
4306;DHT22;2166;49.926;8.608;2023-04-03T04:59:16;4.00;78.30
4306;DHT22;2166;49.926;8.608;2023-04-03T05:01:48;3.90;78.30
4306;DHT22;2166;49.926;8.608;2023-04-03T05:04:16;3.90;78.40
4306;DHT22;2166;49.926;8.608;2023-04-03T05:06:50;3.90;78.20
4306;DHT22;2166;49.926;8.608;2023-04-03T05:09:23;3.80;78.00
4306;DHT22;2166;49.926;8.608;2023-04-03T05:11:52;3.80;78.20
4306;DHT22;2166;49.926;8.608;2023-04-03T05:14:29;3.80;78.00
4306;DHT22;2166;49.926;8.608;2023-04-03T05:17:02;3.70;78.00
4306;DHT22;2166;49.926;8.608;2023-04-03T05:19:33;3.70;78.00
4306;DHT22;2166;49.926;8.608;2023-04-03T05:22:08;3.70;78.10
4306;DHT22;2166;49.926;8.608;2023-04-03T05:24:40;3.70;78.20
4306;DHT22;2166;49.926;8.608;2023-04-03T05:27:10;3.70;78.20
4306;DHT22;2166;49.926;8.608;2023-04-03T05:29:43;3.70;78.10
4306;DHT22;2166;49.926;8.608;2023-04-03T05:32:18;3.70;78.00
4306;DHT22;2166;49.926;8.608;2023-04-03T05:34:52;3.80;78.00
4306;DHT22;2166;49.926;8.608;2023-04-03T05:37:23;3.80;78.10
4306;DHT22;2166;49.926;8.608;2023-04-03T05:39:53;3.80;78.10
4306;DHT22;2166;49.926;8.608;2023-04-03T05:42:22;3.80;77.90
4306;DHT22;2166;49.926;8.608;2023-04-03T05:44:51;3.90;78.00
4306;DHT22;2166;49.926;8.608;2023-04-03T05:47:20;3.90;77.90
4306;DHT22;2166;49.926;8.608;2023-04-03T05:49:48;4.00;77.60
4306;DHT22;2166;49.926;8.608;2023-04-03T05:52:19;4.00;77.60
4306;DHT22;2166;49.926;8.608;2023-04-03T05:54:52;4.10;77.50
4306;DHT22;2166;49.926;8.608;2023-04-03T05:57:25;4.20;77.40
4306;DHT22;2166;49.926;8.608;2023-04-03T05:59:55;4.30;77.50
4306;DHT22;2166;49.926;8.608;2023-04-03T06:02:24;4.70;77.40
4306;DHT22;2166;49.926;8.608;2023-04-03T06:04:56;5.50;77.00
4306;DHT22;2166;49.926;8.608;2023-04-03T06:07:24;5.90;75.90
4306;DHT22;2166;49.926;8.608;2023-04-03T06:09:56;5.90;75.70
4306;DHT22;2166;49.926;8.608;2023-04-03T06:12:25;6.00;75.40
4306;DHT22;2166;49.926;8.608;2023-04-03T06:14:56;6.20;75.20
4306;DHT22;2166;49.926;8.608;2023-04-03T06:17:26;6.60;74.90
4306;DHT22;2166;49.926;8.608;2023-04-03T06:19:55;7.30;74.30
4306;DHT22;2166;49.926;8.608;2023-04-03T06:22:25;8.10;72.60
4306;DHT22;2166;49.926;8.608;2023-04-03T06:24:58;8.20;71.00
4306;DHT22;2166;49.926;8.608;2023-04-03T06:27:27;8.20;71.50
4306;DHT22;2166;49.926;8.608;2023-04-03T06:29:56;8.20;71.20
4306;DHT22;2166;49.926;8.608;2023-04-03T06:32:24;7.90;71.10
4306;DHT22;2166;49.926;8.608;2023-04-03T06:34:53;7.90;70.90
4306;DHT22;2166;49.926;8.608;2023-04-03T06:37:22;7.60;71.10
4306;DHT22;2166;49.926;8.608;2023-04-03T06:39:53;7.40;71.40
4306;DHT22;2166;49.926;8.608;2023-04-03T06:42:25;7.20;71.80
4306;DHT22;2166;49.926;8.608;2023-04-03T06:45:02;7.30;72.00
4306;DHT22;2166;49.926;8.608;2023-04-03T06:47:32;8.00;71.60
4306;DHT22;2166;49.926;8.608;2023-04-03T06:50:00;8.30;70.30
4306;DHT22;2166;49.926;8.608;2023-04-03T06:52:30;8.40;69.20
4306;DHT22;2166;49.926;8.608;2023-04-03T06:55:00;8.50;69.00
4306;DHT22;2166;49.926;8.608;2023-04-03T06:57:31;9.00;67.60
4306;DHT22;2166;49.926;8.608;2023-04-03T07:00:02;9.40;66.80
4306;DHT22;2166;49.926;8.608;2023-04-03T07:02:31;9.80;65.20
4306;DHT22;2166;49.926;8.608;2023-04-03T07:04:59;10.10;63.90
4306;DHT22;2166;49.926;8.608;2023-04-03T07:07:28;10.40;63.50
4306;DHT22;2166;49.926;8.608;2023-04-03T07:09:57;10.80;63.00
4306;DHT22;2166;49.926;8.608;2023-04-03T07:12:26;11.40;61.30
4306;DHT22;2166;49.926;8.608;2023-04-03T07:17:42;11.90;57.40
4306;DHT22;2166;49.926;8.608;2023-04-03T07:20:11;12.00;58.60
4306;DHT22;2166;49.926;8.608;2023-04-03T07:22:39;12.40;57.80
4306;DHT22;2166;49.926;8.608;2023-04-03T07:25:08;12.40;56.70
4306;DHT22;2166;49.926;8.608;2023-04-03T07:27:38;12.80;56.10
4306;DHT22;2166;49.926;8.608;2023-04-03T07:30:07;12.90;54.60
4306;DHT22;2166;49.926;8.608;2023-04-03T07:32:36;12.90;54.70
4306;DHT22;2166;49.926;8.608;2023-04-03T07:35:11;12.50;54.20
4306;DHT22;2166;49.926;8.608;2023-04-03T07:37:39;12.50;54.90
4306;DHT22;2166;49.926;8.608;2023-04-03T07:40:09;12.80;54.30
4306;DHT22;2166;49.926;8.608;2023-04-03T07:42:40;13.20;53.90
4306;DHT22;2166;49.926;8.608;2023-04-03T07:45:26;13.30;51.80
4306;DHT22;2166;49.926;8.608;2023-04-03T07:47:54;13.50;53.40
4306;DHT22;2166;49.926;8.608;2023-04-03T07:50:37;13.70;52.60
4306;DHT22;2166;49.926;8.608;2023-04-03T07:53:05;13.40;51.60
4306;DHT22;2166;49.926;8.608;2023-04-03T07:55:37;13.30;52.30
4306;DHT22;2166;49.926;8.608;2023-04-03T07:58:10;13.70;52.10
4306;DHT22;2166;49.926;8.608;2023-04-03T08:00:46;14.30;52.30
4306;DHT22;2166;49.926;8.608;2023-04-03T08:03:18;13.90;52.10
4306;DHT22;2166;49.926;8.608;2023-04-03T08:05:49;14.20;51.50
4306;DHT22;2166;49.926;8.608;2023-04-03T08:08:23;14.90;50.80
4306;DHT22;2166;49.926;8.608;2023-04-03T08:10:54;15.20;49.50
4306;DHT22;2166;49.926;8.608;2023-04-03T08:13:23;15.40;48.70
4306;DHT22;2166;49.926;8.608;2023-04-03T08:16:06;15.20;48.30
4306;DHT22;2166;49.926;8.608;2023-04-03T08:21:30;15.40;48.30
4306;DHT22;2166;49.926;8.608;2023-04-03T08:24:03;16.00;48.00
4306;DHT22;2166;49.926;8.608;2023-04-03T08:26:49;16.20;47.00
4306;DHT22;2166;49.926;8.608;2023-04-03T08:29:28;16.50;45.80
4306;DHT22;2166;49.926;8.608;2023-04-03T08:32:29;16.50;46.00
4306;DHT22;2166;49.926;8.608;2023-04-03T08:35:25;16.20;46.30
4306;DHT22;2166;49.926;8.608;2023-04-03T08:41:09;16.70;45.10
4306;DHT22;2166;49.926;8.608;2023-04-03T08:43:54;16.80;45.90
4306;DHT22;2166;49.926;8.608;2023-04-03T08:46:28;16.90;44.70
4306;DHT22;2166;49.926;8.608;2023-04-03T08:49:01;17.30;43.70
4306;DHT22;2166;49.926;8.608;2023-04-03T08:51:36;17.20;44.20
4306;DHT22;2166;49.926;8.608;2023-04-03T08:54:12;16.60;44.50
4306;DHT22;2166;49.926;8.608;2023-04-03T08:56:52;15.30;45.70
4306;DHT22;2166;49.926;8.608;2023-04-03T08:59:28;14.10;47.40
4306;DHT22;2166;49.926;8.608;2023-04-03T09:01:57;12.90;49.50
4306;DHT22;2166;49.926;8.608;2023-04-03T09:04:29;11.90;52.50
4306;DHT22;2166;49.926;8.608;2023-04-03T09:07:00;10.90;54.00
4306;DHT22;2166;49.926;8.608;2023-04-03T09:09:32;10.00;56.00
4306;DHT22;2166;49.926;8.608;2023-04-03T09:12:10;9.80;58.10
4306;DHT22;2166;49.926;8.608;2023-04-03T09:14:42;9.60;58.40
4306;DHT22;2166;49.926;8.608;2023-04-03T09:17:13;9.60;58.90
4306;DHT22;2166;49.926;8.608;2023-04-03T09:19:47;9.50;58.90
4306;DHT22;2166;49.926;8.608;2023-04-03T09:22:20;10.00;57.90
4306;DHT22;2166;49.926;8.608;2023-04-03T09:24:52;10.80;56.70
4306;DHT22;2166;49.926;8.608;2023-04-03T09:27:26;11.50;54.30
4306;DHT22;2166;49.926;8.608;2023-04-03T09:29:55;12.30;53.90
4306;DHT22;2166;49.926;8.608;2023-04-03T09:32:26;13.90;49.60
4306;DHT22;2166;49.926;8.608;2023-04-03T09:34:55;15.00;48.00
4306;DHT22;2166;49.926;8.608;2023-04-03T09:37:34;14.90;47.30
4306;DHT22;2166;49.926;8.608;2023-04-03T09:40:27;15.30;46.10
4306;DHT22;2166;49.926;8.608;2023-04-03T09:42:58;14.60;48.10
4306;DHT22;2166;49.926;8.608;2023-04-03T09:45:29;13.30;49.20
4306;DHT22;2166;49.926;8.608;2023-04-03T09:48:08;13.30;51.60
4306;DHT22;2166;49.926;8.608;2023-04-03T09:50:52;12.80;51.10
4306;DHT22;2166;49.926;8.608;2023-04-03T09:53:26;12.60;51.40
4306;DHT22;2166;49.926;8.608;2023-04-03T09:55:55;12.40;52.60
4306;DHT22;2166;49.926;8.608;2023-04-03T09:58:28;12.10;52.90
4306;DHT22;2166;49.926;8.608;2023-04-03T10:01:36;12.50;51.90
4306;DHT22;2166;49.926;8.608;2023-04-03T10:04:54;12.60;51.60
4306;DHT22;2166;49.926;8.608;2023-04-03T10:07:52;14.20;49.90
4306;DHT22;2166;49.926;8.608;2023-04-03T10:10:29;16.20;46.70
4306;DHT22;2166;49.926;8.608;2023-04-03T10:13:03;16.60;44.80
4306;DHT22;2166;49.926;8.608;2023-04-03T10:15:38;16.30;45.30
4306;DHT22;2166;49.926;8.608;2023-04-03T10:18:13;17.30;43.70
4306;DHT22;2166;49.926;8.608;2023-04-03T10:20:50;18.30;42.60
4306;DHT22;2166;49.926;8.608;2023-04-03T10:23:24;18.80;41.00
4306;DHT22;2166;49.926;8.608;2023-04-03T10:26:00;18.70;41.10
4306;DHT22;2166;49.926;8.608;2023-04-03T10:28:33;19.00;41.00
4306;DHT22;2166;49.926;8.608;2023-04-03T10:31:06;18.90;41.10
4306;DHT22;2166;49.926;8.608;2023-04-03T10:33:45;19.50;40.10
4306;DHT22;2166;49.926;8.608;2023-04-03T10:36:19;20.80;39.80
4306;DHT22;2166;49.926;8.608;2023-04-03T10:38:55;21.40;36.70
4306;DHT22;2166;49.926;8.608;2023-04-03T10:41:30;21.00;37.00
4306;DHT22;2166;49.926;8.608;2023-04-03T10:44:04;20.70;37.00
4306;DHT22;2166;49.926;8.608;2023-04-03T10:46:40;19.70;38.80
4306;DHT22;2166;49.926;8.608;2023-04-03T10:49:24;18.70;40.00
4306;DHT22;2166;49.926;8.608;2023-04-03T10:51:55;18.10;40.80
4306;DHT22;2166;49.926;8.608;2023-04-03T10:54:32;18.90;40.30
4306;DHT22;2166;49.926;8.608;2023-04-03T10:57:03;19.00;40.40
4306;DHT22;2166;49.926;8.608;2023-04-03T10:59:41;18.20;42.10
4306;DHT22;2166;49.926;8.608;2023-04-03T11:02:16;17.30;41.80
4306;DHT22;2166;49.926;8.608;2023-04-03T11:04:47;17.60;42.90
4306;DHT22;2166;49.926;8.608;2023-04-03T11:07:22;18.40;41.30
4306;DHT22;2166;49.926;8.608;2023-04-03T11:09:56;17.90;38.50
4306;DHT22;2166;49.926;8.608;2023-04-03T11:12:26;16.90;41.10
4306;DHT22;2166;49.926;8.608;2023-04-03T11:14:56;16.50;41.80
4306;DHT22;2166;49.926;8.608;2023-04-03T11:17:30;16.30;42.60
4306;DHT22;2166;49.926;8.608;2023-04-03T11:20:04;16.10;42.40
4306;DHT22;2166;49.926;8.608;2023-04-03T11:22:39;15.60;44.80
4306;DHT22;2166;49.926;8.608;2023-04-03T11:25:14;15.40;43.70
4306;DHT22;2166;49.926;8.608;2023-04-03T11:27:47;15.60;44.20
4306;DHT22;2166;49.926;8.608;2023-04-03T11:30:19;17.40;41.70
4306;DHT22;2166;49.926;8.608;2023-04-03T11:32:53;17.20;42.00
4306;DHT22;2166;49.926;8.608;2023-04-03T11:35:25;17.60;42.00
4306;DHT22;2166;49.926;8.608;2023-04-03T11:37:56;18.10;40.70
4306;DHT22;2166;49.926;8.608;2023-04-03T11:40:26;17.70;39.60
4306;DHT22;2166;49.926;8.608;2023-04-03T11:43:02;16.90;41.70
4306;DHT22;2166;49.926;8.608;2023-04-03T11:45:36;18.20;41.00
4306;DHT22;2166;49.926;8.608;2023-04-03T11:48:41;19.90;39.40
4306;DHT22;2166;49.926;8.608;2023-04-03T11:51:02;21.40;36.10
4306;DHT22;2166;49.926;8.608;2023-04-03T11:53:54;22.30;34.20
4306;DHT22;2166;49.926;8.608;2023-04-03T11:56:43;23.10;32.50
4306;DHT22;2166;49.926;8.608;2023-04-03T11:59:16;23.80;32.90
4306;DHT22;2166;49.926;8.608;2023-04-03T12:01:51;22.60;32.20
4306;DHT22;2166;49.926;8.608;2023-04-03T12:04:22;20.30;35.20
4306;DHT22;2166;49.926;8.608;2023-04-03T12:13:00;17.30;36.10
4306;DHT22;2166;49.926;8.608;2023-04-03T12:21:14;18.30;35.30
4306;DHT22;2166;49.926;8.608;2023-04-03T12:24:03;18.80;33.30
4306;DHT22;2166;49.926;8.608;2023-04-03T12:26:35;19.50;35.50
4306;DHT22;2166;49.926;8.608;2023-04-03T12:32:08;21.40;32.40
4306;DHT22;2166;49.926;8.608;2023-04-03T12:34:49;20.70;32.90
4306;DHT22;2166;49.926;8.608;2023-04-03T12:37:37;19.30;33.10
4306;DHT22;2166;49.926;8.608;2023-04-03T12:40:14;19.60;33.20
4306;DHT22;2166;49.926;8.608;2023-04-03T12:43:06;19.90;32.30
4306;DHT22;2166;49.926;8.608;2023-04-03T12:45:41;19.70;33.90
4306;DHT22;2166;49.926;8.608;2023-04-03T12:54:14;18.50;33.90
4306;DHT22;2166;49.926;8.608;2023-04-03T12:56:45;19.90;33.10
4306;DHT22;2166;49.926;8.608;2023-04-03T12:59:27;20.10;32.60
4306;DHT22;2166;49.926;8.608;2023-04-03T13:02:20;18.60;31.60
4306;DHT22;2166;49.926;8.608;2023-04-03T13:04:54;18.50;32.30
4306;DHT22;2166;49.926;8.608;2023-04-03T13:07:29;18.30;34.60
4306;DHT22;2166;49.926;8.608;2023-04-03T13:10:16;18.40;32.40
4306;DHT22;2166;49.926;8.608;2023-04-03T13:13:07;18.70;34.30
4306;DHT22;2166;49.926;8.608;2023-04-03T13:15:45;19.00;32.70
4306;DHT22;2166;49.926;8.608;2023-04-03T13:18:33;19.60;32.30
4306;DHT22;2166;49.926;8.608;2023-04-03T13:21:06;20.00;32.70
4306;DHT22;2166;49.926;8.608;2023-04-03T13:24:13;20.50;31.40
4306;DHT22;2166;49.926;8.608;2023-04-03T13:27:10;20.30;33.40
4306;DHT22;2166;49.926;8.608;2023-04-03T13:29:39;20.00;34.10
4306;DHT22;2166;49.926;8.608;2023-04-03T13:32:32;19.80;33.70
4306;DHT22;2166;49.926;8.608;2023-04-03T13:37:54;20.00;32.60
4306;DHT22;2166;49.926;8.608;2023-04-03T13:40:48;19.80;33.20
4306;DHT22;2166;49.926;8.608;2023-04-03T13:43:37;19.10;35.50
4306;DHT22;2166;49.926;8.608;2023-04-03T13:46:22;18.90;34.20
4306;DHT22;2166;49.926;8.608;2023-04-03T13:49:21;19.10;33.50
4306;DHT22;2166;49.926;8.608;2023-04-03T13:52:23;19.60;33.80
4306;DHT22;2166;49.926;8.608;2023-04-03T13:55:24;19.70;33.90
4306;DHT22;2166;49.926;8.608;2023-04-03T13:58:20;19.80;34.20
4306;DHT22;2166;49.926;8.608;2023-04-03T14:01:35;20.00;33.00
4306;DHT22;2166;49.926;8.608;2023-04-03T14:04:11;19.60;33.40
4306;DHT22;2166;49.926;8.608;2023-04-03T14:06:40;19.70;33.30
4306;DHT22;2166;49.926;8.608;2023-04-03T14:09:11;19.50;33.40
4306;DHT22;2166;49.926;8.608;2023-04-03T14:11:40;18.60;33.50
4306;DHT22;2166;49.926;8.608;2023-04-03T14:14:14;17.60;36.20
4306;DHT22;2166;49.926;8.608;2023-04-03T14:16:46;17.70;36.40
4306;DHT22;2166;49.926;8.608;2023-04-03T14:19:18;18.50;35.80
4306;DHT22;2166;49.926;8.608;2023-04-03T14:21:49;19.30;34.70
4306;DHT22;2166;49.926;8.608;2023-04-03T14:24:24;19.10;34.30
4306;DHT22;2166;49.926;8.608;2023-04-03T14:26:54;18.80;35.80
4306;DHT22;2166;49.926;8.608;2023-04-03T14:29:23;18.30;35.10
4306;DHT22;2166;49.926;8.608;2023-04-03T14:31:53;17.80;35.30
4306;DHT22;2166;49.926;8.608;2023-04-03T14:34:40;17.90;36.80
4306;DHT22;2166;49.926;8.608;2023-04-03T14:37:11;17.50;36.20
4306;DHT22;2166;49.926;8.608;2023-04-03T14:39:41;17.30;36.40
4306;DHT22;2166;49.926;8.608;2023-04-03T14:42:12;17.10;36.80
4306;DHT22;2166;49.926;8.608;2023-04-03T14:44:41;17.60;36.70
4306;DHT22;2166;49.926;8.608;2023-04-03T14:47:14;17.70;35.60
4306;DHT22;2166;49.926;8.608;2023-04-03T14:49:57;17.70;36.70
4306;DHT22;2166;49.926;8.608;2023-04-03T14:52:35;17.20;36.20
4306;DHT22;2166;49.926;8.608;2023-04-03T14:55:07;17.20;36.40
4306;DHT22;2166;49.926;8.608;2023-04-03T14:57:38;16.60;37.70
4306;DHT22;2166;49.926;8.608;2023-04-03T15:00:11;16.50;37.90
4306;DHT22;2166;49.926;8.608;2023-04-03T15:02:43;16.30;38.10
4306;DHT22;2166;49.926;8.608;2023-04-03T15:05:13;16.30;37.90
4306;DHT22;2166;49.926;8.608;2023-04-03T15:07:46;16.40;37.60
4306;DHT22;2166;49.926;8.608;2023-04-03T15:10:20;16.50;38.30
4306;DHT22;2166;49.926;8.608;2023-04-03T15:12:49;16.50;37.40
4306;DHT22;2166;49.926;8.608;2023-04-03T15:15:18;16.40;37.60
4306;DHT22;2166;49.926;8.608;2023-04-03T15:17:51;16.40;37.50
4306;DHT22;2166;49.926;8.608;2023-04-03T15:20:22;16.00;38.30
4306;DHT22;2166;49.926;8.608;2023-04-03T15:22:51;15.80;38.00
4306;DHT22;2166;49.926;8.608;2023-04-03T15:25:22;15.70;38.30
4306;DHT22;2166;49.926;8.608;2023-04-03T15:27:50;15.60;38.80
4306;DHT22;2166;49.926;8.608;2023-04-03T15:30:19;15.50;38.70
4306;DHT22;2166;49.926;8.608;2023-04-03T15:32:51;15.60;38.50
4306;DHT22;2166;49.926;8.608;2023-04-03T15:35:20;15.10;39.10
4306;DHT22;2166;49.926;8.608;2023-04-03T15:37:50;15.00;39.80
4306;DHT22;2166;49.926;8.608;2023-04-03T15:40:19;14.90;40.00
4306;DHT22;2166;49.926;8.608;2023-04-03T15:42:49;15.10;39.70
4306;DHT22;2166;49.926;8.608;2023-04-03T15:45:22;15.20;40.90
4306;DHT22;2166;49.926;8.608;2023-04-03T15:47:53;15.20;39.40
4306;DHT22;2166;49.926;8.608;2023-04-03T15:50:23;15.00;40.50
4306;DHT22;2166;49.926;8.608;2023-04-03T15:52:53;14.70;40.40
4306;DHT22;2166;49.926;8.608;2023-04-03T15:55:22;14.10;41.30
4306;DHT22;2166;49.926;8.608;2023-04-03T15:57:50;13.90;41.30
4306;DHT22;2166;49.926;8.608;2023-04-03T16:00:22;13.60;42.20
4306;DHT22;2166;49.926;8.608;2023-04-03T16:02:52;13.40;42.10
4306;DHT22;2166;49.926;8.608;2023-04-03T16:05:22;13.00;41.90
4306;DHT22;2166;49.926;8.608;2023-04-03T16:07:53;12.70;43.30
4306;DHT22;2166;49.926;8.608;2023-04-03T16:10:22;12.60;43.30
4306;DHT22;2166;49.926;8.608;2023-04-03T16:12:50;12.60;43.20
4306;DHT22;2166;49.926;8.608;2023-04-03T16:15:20;12.50;43.90
4306;DHT22;2166;49.926;8.608;2023-04-03T16:17:56;12.60;43.40
4306;DHT22;2166;49.926;8.608;2023-04-03T16:20:27;12.60;43.50
4306;DHT22;2166;49.926;8.608;2023-04-03T16:22:57;12.40;43.70
4306;DHT22;2166;49.926;8.608;2023-04-03T16:25:27;12.50;44.10
4306;DHT22;2166;49.926;8.608;2023-04-03T16:28:01;12.10;43.80
4306;DHT22;2166;49.926;8.608;2023-04-03T16:30:32;11.90;45.10
4306;DHT22;2166;49.926;8.608;2023-04-03T16:33:01;11.70;44.70
4306;DHT22;2166;49.926;8.608;2023-04-03T16:35:31;11.30;45.20
4306;DHT22;2166;49.926;8.608;2023-04-03T16:37:59;11.10;45.70
4306;DHT22;2166;49.926;8.608;2023-04-03T16:40:28;11.00;46.50
4306;DHT22;2166;49.926;8.608;2023-04-03T16:42:57;11.10;46.90
4306;DHT22;2166;49.926;8.608;2023-04-03T16:45:25;11.00;47.40
4306;DHT22;2166;49.926;8.608;2023-04-03T16:47:54;10.80;47.00
4306;DHT22;2166;49.926;8.608;2023-04-03T16:50:23;10.60;48.00
4306;DHT22;2166;49.926;8.608;2023-04-03T16:52:53;10.50;47.50
4306;DHT22;2166;49.926;8.608;2023-04-03T16:55:22;10.30;47.60
4306;DHT22;2166;49.926;8.608;2023-04-03T16:57:50;10.20;48.70
4306;DHT22;2166;49.926;8.608;2023-04-03T17:00:19;9.90;48.30
4306;DHT22;2166;49.926;8.608;2023-04-03T17:02:50;9.80;48.30
4306;DHT22;2166;49.926;8.608;2023-04-03T17:05:20;9.60;49.20
4306;DHT22;2166;49.926;8.608;2023-04-03T17:07:48;9.60;49.60
4306;DHT22;2166;49.926;8.608;2023-04-03T17:10:20;9.40;49.60
4306;DHT22;2166;49.926;8.608;2023-04-03T17:12:48;9.10;49.90
4306;DHT22;2166;49.926;8.608;2023-04-03T17:15:21;8.90;50.60
4306;DHT22;2166;49.926;8.608;2023-04-03T17:17:54;8.80;51.20
4306;DHT22;2166;49.926;8.608;2023-04-03T17:20:23;8.70;51.60
4306;DHT22;2166;49.926;8.608;2023-04-03T17:22:52;8.60;51.50